Time;durP1;ratioP1;P1;durP2;ratioP2;P2;SDS_P1;SDS_P2;PMS_P1;PMS_P2;Temp;Humidity;BMP_temperature;BMP_pressure;BME280_temperature;BME280_humidity;BME280_pressure;Samples;Min_cycle;Max_cycle;Signal;HPM_P1;HPM_P2
2022/04/23 00:01:00;;;;;;;18.23;12.02;;;;;;;16.34;40.98;92181.81;5053013;28;20249;-85
2022/04/23 00:03:26;;;;;;;15.40;11.95;;;;;;;16.33;40.77;92170.19;5036507;28;20060;-85
2022/04/23 00:05:51;;;;;;;18.48;11.57;;;;;;;16.34;41.15;92179.84;5048891;28;20507;-85
2022/04/23 00:08:16;;;;;;;15.40;11.65;;;;;;;16.35;41.03;92186.03;5049584;28;20510;-86
2022/04/23 00:10:42;;;;;;;16.20;11.80;;;;;;;16.35;40.77;92186.03;5049958;28;20041;-85
2022/04/23 00:13:07;;;;;;;20.00;11.27;;;;;;;16.33;40.70;92177.63;5036297;28;20032;-85
2022/04/23 00:15:39;;;;;;;15.85;11.35;;;;;;;16.33;40.74;92178.38;5036067;28;20542;-85
2022/04/23 00:18:07;;;;;;;16.75;11.43;;;;;;;16.32;40.94;92179.63;5055876;28;20061;-85
2022/04/23 00:20:33;;;;;;;14.95;10.68;;;;;;;16.33;40.90;92180.34;5052657;28;20555;-85
2022/04/23 00:22:59;;;;;;;15.80;10.68;;;;;;;16.34;40.88;92181.81;5053912;28;20054;-85
2022/04/23 00:25:26;;;;;;;14.57;10.90;;;;;;;16.32;40.77;92170.72;5051951;28;20041;-85
2022/04/23 00:27:52;;;;;;;14.35;10.38;;;;;;;16.31;41.23;92180.16;5053514;28;20032;-86
2022/04/23 00:30:18;;;;;;;15.18;10.73;;;;;;;16.34;40.84;92179.09;5051694;28;20051;-85
2022/04/23 00:32:43;;;;;;;13.48;10.35;;;;;;;16.32;41.00;92167.97;5036524;28;20033;-85
2022/04/23 00:35:13;;;;;;;13.38;10.52;;;;;;;16.31;40.92;92164.53;5036275;28;20039;-86
2022/04/23 00:37:39;;;;;;;13.63;9.98;;;;;;;16.32;40.73;92167.97;5052580;28;20125;-85
2022/04/23 00:40:07;;;;;;;15.15;9.57;;;;;;;16.31;40.72;92178.16;5068692;28;20490;-85
2022/04/23 00:42:43;;;;;;;14.15;9.45;;;;;;;16.30;40.82;92173.97;5053065;28;20037;-86
2022/04/23 00:45:09;;;;;;;13.82;9.82;;;;;;;16.32;40.87;92176.16;5068436;28;20067;-86
2022/04/23 00:47:34;;;;;;;12.27;9.60;;;;;;;16.31;40.73;92172.69;5069226;28;20041;-85
2022/04/23 00:49:59;;;;;;;13.60;9.75;;;;;;;16.32;41.05;92178.88;5068936;28;20514;-85
2022/04/23 00:52:25;;;;;;;13.98;9.85;;;;;;;16.31;40.71;92172.69;5034877;28;20048;-85
2022/04/23 00:54:51;;;;;;;14.30;9.50;;;;;;;16.30;41.04;92184.88;5052368;28;20041;-85
2022/04/23 00:57:16;;;;;;;12.77;9.88;;;;;;;16.31;40.63;92171.97;5051619;28;20398;-85
2022/04/23 00:59:43;;;;;;;11.75;9.43;;;;;;;16.31;40.77;92183.59;5035574;28;20036;-86
2022/04/23 01:02:08;;;;;;;10.85;8.77;;;;;;;16.31;41.12;92178.16;5035270;28;20040;-85
2022/04/23 01:04:34;;;;;;;13.65;8.82;;;;;;;16.31;40.78;92180.16;5052088;28;20039;-86
2022/04/23 01:06:59;;;;;;;12.30;8.82;;;;;;;16.29;41.00;92175.22;5035511;28;20044;-85
2022/04/23 01:09:25;;;;;;;13.68;9.63;;;;;;;16.30;40.88;92173.22;5050989;28;20044;-85
2022/04/23 01:11:50;;;;;;;12.27;8.82;;;;;;;16.30;40.85;92167.78;5051988;28;20041;-85
2022/04/23 01:14:18;;;;;;;10.48;8.52;;;;;;;16.29;40.93;92175.22;5051534;28;20032;-85
2022/04/23 01:16:43;;;;;;;11.75;7.88;;;;;;;16.29;40.67;92177.22;5048449;28;20041;-88
2022/04/23 01:19:08;;;;;;;11.15;8.20;;;;;;;16.29;40.76;92174.47;5043474;28;20045;-85
2022/04/23 01:21:34;;;;;;;10.60;7.72;;;;;;;16.29;40.69;92177.94;5051416;28;20040;-86
2022/04/23 01:23:59;;;;;;;10.20;8.32;;;;;;;16.29;40.83;92186.13;5052135;28;20674;-87
2022/04/23 01:26:30;;;;;;;10.68;7.93;;;;;;;16.29;40.96;92169.03;5051170;28;20037;-85
2022/04/23 01:28:56;;;;;;;;;;;;;;;16.32;40.78;92179.63;5035946;28;20501;-85
2022/04/23 01:31:22;;;;;;;10.25;8.13;;;;;;;16.29;40.78;92166.31;5053762;28;19978;-85
2022/04/23 01:33:47;;;;;;;11.25;8.20;;;;;;;16.28;40.69;92173.00;5048668;28;20041;-85
2022/04/23 01:36:14;;;;;;;12.02;6.97;;;;;;;16.27;41.06;92174.28;5048351;28;20119;-85
2022/04/23 01:38:40;;;;;;;11.50;8.07;;;;;;;16.27;40.75;92175.00;5049533;28;20296;-85
2022/04/23 01:41:05;;;;;;;9.73;7.60;;;;;;;16.28;41.09;92167.56;5048320;28;20052;-85
2022/04/23 01:43:31;;;;;;;9.32;6.95;;;;;;;16.25;40.63;92177.53;5050254;28;20040;-85
2022/04/23 01:45:56;;;;;;;11.15;7.95;;;;;;;16.26;40.60;92165.34;5051702;28;20483;-85
2022/04/23 01:48:21;;;;;;;10.35;7.65;;;;;;;16.29;40.87;92177.22;5034160;28;20037;-85
2022/04/23 01:50:47;;;;;;;9.27;7.55;;;;;;;16.30;40.77;92179.41;5067955;28;20039;-85
2022/04/23 01:53:12;;;;;;;8.43;7.03;;;;;;;16.28;40.67;92173.00;5067072;28;20340;-85
2022/04/23 01:55:37;;;;;;;10.25;8.02;;;;;;;16.28;40.91;92160.13;5051184;28;20055;-85
2022/04/23 01:58:03;;;;;;;10.50;7.05;;;;;;;16.27;41.09;92185.91;5050223;28;20406;-85
2022/04/23 02:00:28;;;;;;;8.07;6.63;;;;;;;16.29;40.51;92179.94;5034499;28;20040;-88
2022/04/23 02:02:56;;;;;;;8.50;6.75;;;;;;;16.27;40.64;92183.19;5046359;28;20075;-85
2022/04/23 02:05:22;;;;;;;9.48;7.00;;;;;;;16.29;41.02;92185.41;5031144;28;21434;-85
2022/04/23 02:07:47;;;;;;;8.85;6.97;;;;;;;16.28;40.74;92181.19;5033326;28;20036;-85
2022/04/23 02:10:15;;;;;;;8.60;7.10;;;;;;;16.28;40.99;92176.47;5050170;28;20052;-85
2022/04/23 02:12:41;;;;;;;9.50;7.28;;;;;;;16.28;40.76;92183.94;5067075;28;20044;-85
2022/04/23 02:15:07;;;;;;;10.38;7.40;;;;;;;16.27;40.56;92180.47;5049882;28;20102;-85
2022/04/23 02:17:34;;;;;;;9.80;7.35;;;;;;;16.27;40.94;92177.00;5066920;28;20065;-88
2022/04/23 02:20:04;;;;;;;8.73;6.82;;;;;;;16.26;40.75;92178.25;5059291;28;20037;-85
2022/04/23 02:22:30;;;;;;;9.50;6.70;;;;;;;16.27;40.77;92183.19;5047559;28;20088;-86
2022/04/23 02:24:56;;;;;;;9.70;6.57;;;;;;;16.26;40.97;92173.53;5050606;28;20032;-85
2022/04/23 02:27:23;;;;;;;9.30;6.30;;;;;;;16.25;41.01;92174.81;5049932;28;20040;-85
2022/04/23 02:29:48;;;;;;;8.75;6.90;;;;;;;16.26;40.87;92181.00;5067166;28;20064;-86
2022/04/23 02:32:14;;;;;;;8.45;6.30;;;;;;;16.26;40.73;92189.16;5048738;28;20033;-85
2022/04/23 02:34:39;;;;;;;10.48;7.10;;;;;;;16.26;40.76;92178.25;5030995;28;20059;-85
2022/04/23 02:37:07;;;;;;;8.48;6.25;;;;;;;16.25;40.81;92180.25;5046995;28;20530;-85
2022/04/23 02:39:33;;;;;;;8.13;5.85;;;;;;;16.26;40.82;92175.53;5051125;28;20150;-85
2022/04/23 02:41:58;;;;;;;10.18;7.70;;;;;;;16.25;40.65;92188.44;5067327;28;20403;-85
2022/04/23 02:44:25;;;;;;;8.75;6.50;;;;;;;16.26;40.86;92191.91;5049426;28;20078;-85
2022/04/23 02:46:52;;;;;;;9.00;6.22;;;;;;;16.26;40.67;92200.06;5067078;28;20059;-85
2022/04/23 02:49:17;;;;;;;7.95;6.03;;;;;;;16.26;40.91;92197.34;5049276;28;20044;-85
2022/04/23 02:51:43;;;;;;;8.10;5.80;;;;;;;16.24;40.91;92195.16;5050533;28;20048;-86
2022/04/23 02:54:08;;;;;;;7.32;5.63;;;;;;;16.25;40.63;92187.69;5032740;28;20037;-88
2022/04/23 02:56:34;;;;;;;6.75;5.53;;;;;;;16.24;40.68;92186.97;5033342;28;20616;-85
2022/04/23 02:59:02;;;;;;;6.78;5.40;;;;;;;16.25;40.81;92184.97;5049856;28;20033;-85
2022/04/23 03:01:28;;;;;;;6.80;5.07;;;;;;;16.24;40.71;92197.16;5049678;28;20106;-86
2022/04/23 03:03:54;;;;;;;8.05;5.60;;;;;;;16.24;40.88;92192.41;5033548;28;20040;-86
2022/04/23 03:06:20;;;;;;;7.80;5.25;;;;;;;16.25;40.87;92196.63;5033495;28;20033;-85
2022/04/23 03:08:46;;;;;;;7.65;6.00;;;;;;;16.24;40.72;92186.25;5066784;28;20032;-86
2022/04/23 03:11:11;;;;;;;8.70;5.65;;;;;;;16.26;40.94;92200.06;5049642;28;20082;-85
2022/04/23 03:13:37;;;;;;;6.72;5.18;;;;;;;16.24;40.74;92189.69;5066115;28;20050;-85
2022/04/23 03:16:02;;;;;;;8.07;5.82;;;;;;;16.25;40.91;92199.34;5046657;28;20518;-86
2022/04/23 03:18:28;;;;;;;7.28;5.95;;;;;;;16.25;40.91;92193.16;5046198;28;20047;-86
2022/04/23 03:20:53;;;;;;;8.35;5.78;;;;;;;16.24;40.92;92197.16;5050008;28;20032;-85
2022/04/23 03:23:19;;;;;;;7.55;5.15;;;;;;;16.24;40.92;92195.16;5032679;28;20044;-85
2022/04/23 03:25:45;;;;;;;7.03;5.45;;;;;;;16.24;41.14;92191.72;5050231;28;20048;-85
2022/04/23 03:28:13;;;;;;;7.32;5.45;;;;;;;16.22;40.84;92189.50;5049272;28;20040;-86
2022/04/23 03:30:39;;;;;;;7.03;5.20;;;;;;;16.24;40.92;92186.25;5049399;28;20047;-85
2022/04/23 03:33:04;;;;;;;8.65;6.28;;;;;;;16.24;40.89;92199.88;5045615;28;20040;-85
2022/04/23 03:35:30;;;;;;;7.60;5.57;;;;;;;16.25;41.05;92199.34;5046191;28;20041;-86
2022/04/23 03:37:58;;;;;;;6.20;5.20;;;;;;;16.24;40.69;92186.97;5046756;28;20082;-86
2022/04/23 03:40:23;;;;;;;7.53;4.95;;;;;;;16.23;41.05;92196.44;5040839;28;20495;-85
2022/04/23 03:42:49;;;;;;;8.25;5.72;;;;;;;16.23;40.70;92201.88;5032629;28;20052;-85
2022/04/23 03:45:15;;;;;;;7.65;5.18;;;;;;;16.22;41.10;92199.69;5048823;28;20039;-85
2022/04/23 03:47:44;;;;;;;6.90;5.32;;;;;;;16.23;40.98;92195.69;5066232;28;20536;-85
2022/04/23 03:50:10;;;;;;;6.78;4.85;;;;;;;16.23;41.05;92187.53;5048824;28;20047;-85
2022/04/23 03:52:35;;;;;;;7.35;5.03;;;;;;;16.22;40.76;92196.97;5066381;28;20037;-86
2022/04/23 03:55:01;;;;;;;8.35;5.15;;;;;;;16.22;40.85;92202.41;5041656;28;20549;-86
2022/04/23 03:57:26;;;;;;;6.85;4.90;;;;;;;16.22;40.82;92202.41;5007604;28;20136;-85
2022/04/23 03:59:52;;;;;;;6.35;4.82;;;;;;;16.21;40.78;92204.41;5008279;28;20037;-85
2022/04/23 04:02:17;;;;;;;6.55;4.60;;;;;;;16.24;40.94;92210.78;5007749;28;20030;-85
2022/04/23 04:04:46;;;;;;;7.15;4.93;;;;;;;16.24;40.77;92214.22;5008229;28;20115;-85
2022/04/23 04:07:19;;;;;;;5.75;4.63;;;;;;;16.22;40.93;92211.31;5007598;28;20038;-85
2022/04/23 04:09:44;;;;;;;7.40;5.28;;;;;;;16.22;41.04;92210.59;5024674;28;20060;-85
2022/04/23 04:12:10;;;;;;;6.72;4.82;;;;;;;16.22;40.92;92210.59;5007660;28;20037;-85
2022/04/23 04:14:36;;;;;;;6.45;4.97;;;;;;;16.22;40.59;92210.59;5008333;28;20038;-88
2022/04/23 04:17:04;;;;;;;6.32;5.00;;;;;;;16.21;40.93;92209.13;5002691;28;20045;-85
2022/04/23 04:19:30;;;;;;;7.40;4.60;;;;;;;16.22;40.79;92210.59;4993981;28;20045;-86
2022/04/23 04:21:56;;;;;;;6.45;4.88;;;;;;;16.21;40.90;92211.84;5028027;28;20090;-85
2022/04/23 04:24:23;;;;;;;7.07;4.80;;;;;;;16.22;40.82;92205.88;4994024;28;25254;-85
2022/04/23 04:26:48;;;;;;;7.35;4.55;;;;;;;16.20;40.86;92202.94;5045342;28;20045;-85
2022/04/23 04:29:14;;;;;;;6.22;4.47;;;;;;;16.22;40.75;92208.59;5051872;28;20040;-85
2022/04/23 04:31:51;;;;;;;6.13;4.68;;;;;;;16.20;40.98;92213.84;5062798;28;20390;-85
2022/04/23 04:34:30;;;;;;;6.85;4.72;;;;;;;16.22;40.76;92205.88;5033606;28;20041;-85
2022/04/23 04:37:03;;;;;;;5.70;4.32;;;;;;;16.21;40.83;92204.41;5049837;28;20041;-86
2022/04/23 04:39:29;;;;;;;5.22;3.92;;;;;;;16.20;40.62;92216.56;5052265;28;20178;-88
2022/04/23 04:41:54;;;;;;;6.90;4.90;;;;;;;16.21;40.80;92223.50;5052790;28;20151;-85
2022/04/23 04:44:20;;;;;;;5.90;4.68;;;;;;;16.22;40.90;92222.22;5039104;28;20399;-85
2022/04/23 04:46:45;;;;;;;6.95;4.55;;;;;;;16.24;40.74;92224.44;5010474;28;20049;-86
2022/04/23 04:49:10;;;;;;;6.28;4.90;;;;;;;16.20;40.83;92218.56;5012333;28;20034;-85
2022/04/23 04:51:36;;;;;;;5.90;4.03;;;;;;;16.21;41.16;92218.03;4999618;28;20037;-85
2022/04/23 04:54:03;;;;;;;5.78;4.30;;;;;;;16.20;40.79;92219.28;5048721;28;20041;-85
2022/04/23 04:56:31;;;;;;;6.22;4.53;;;;;;;16.20;40.83;92216.56;5055080;28;20039;-85
2022/04/23 04:58:57;;;;;;;6.93;4.90;;;;;;;16.21;41.19;92220.03;5073103;28;20097;-86
2022/04/23 05:01:22;;;;;;;5.22;3.67;;;;;;;16.20;41.11;92208.38;5054806;28;20036;-85
2022/04/23 05:03:47;;;;;;;7.93;5.03;;;;;;;16.19;41.27;92223.28;5071934;28;20051;-85
2022/04/23 05:06:13;;;;;;;5.70;4.60;;;;;;;16.21;40.89;92220.75;5071664;27;20040;-85
2022/04/23 05:08:38;;;;;;;5.32;4.05;;;;;;;16.20;41.03;92216.56;5055134;28;20032;-88
2022/04/23 05:11:04;;;;;;;5.57;4.10;;;;;;;16.20;40.89;92222.03;5054882;27;20036;-85
2022/04/23 05:13:30;;;;;;;5.57;4.53;;;;;;;16.19;40.85;92220.53;5055103;28;20347;-86
2022/04/23 05:15:55;;;;;;;5.70;4.25;;;;;;;16.20;40.96;92218.56;5054582;28;20037;-85
2022/04/23 05:18:21;;;;;;;5.70;4.03;;;;;;;16.19;41.09;92222.53;5034853;28;20049;-85
2022/04/23 05:20:46;;;;;;;4.68;3.78;;;;;;;16.20;40.97;92232.19;5051390;28;20042;-85
2022/04/23 05:23:12;;;;;;;4.88;3.72;;;;;;;16.21;40.88;92223.50;5034949;28;20071;-85
2022/04/23 05:25:38;;;;;;;5.05;3.70;;;;;;;16.19;41.10;92236.91;5034599;28;20036;-85
2022/04/23 05:28:04;;;;;;;5.32;4.32;;;;;;;16.21;41.02;92237.13;5068189;28;20388;-86
2022/04/23 05:30:29;;;;;;;5.60;3.85;;;;;;;16.20;41.10;92246.56;5035074;28;20059;-90
2022/04/23 05:32:54;;;;;;;6.00;4.18;;;;;;;16.21;40.91;92248.03;5041307;28;20041;-85
2022/04/23 05:35:20;;;;;;;5.43;3.78;;;;;;;16.19;40.91;92242.34;5014305;28;20033;-85
2022/04/23 05:37:45;;;;;;;5.45;3.53;;;;;;;16.20;40.70;92241.09;5032218;28;20518;-87
2022/04/23 05:40:11;;;;;;;4.32;3.30;;;;;;;16.21;41.14;92250.03;5014449;28;20049;-85
2022/04/23 05:42:36;;;;;;;4.70;3.70;;;;;;;16.20;41.16;92245.81;5015259;28;20131;-86
2022/04/23 05:45:02;;;;;;;5.30;3.28;;;;;;;16.19;40.78;92247.81;5031319;28;20048;-85
2022/04/23 05:47:27;;;;;;;5.13;3.38;;;;;;;16.18;41.07;92249.06;5030761;28;20045;-86
2022/04/23 05:49:52;;;;;;;4.13;3.50;;;;;;;16.19;40.97;92245.09;5031717;28;20049;-85
2022/04/23 05:52:18;;;;;;;6.78;3.72;;;;;;;16.19;40.99;92249.81;5047599;28;20041;-85
2022/04/23 05:54:43;;;;;;;4.63;3.40;;;;;;;16.21;40.98;92245.28;5047959;28;20040;-86
2022/04/23 05:57:09;;;;;;;4.47;3.40;;;;;;;16.19;40.68;92249.81;5041619;28;20037;-86
2022/04/23 05:59:34;;;;;;;4.28;3.35;;;;;;;16.19;40.87;92252.53;5047669;28;20384;-87
2022/04/23 06:02:00;;;;;;;5.35;3.35;;;;;;;16.19;41.19;92261.44;5047908;28;20063;-85
2022/04/23 06:04:29;;;;;;;4.32;3.45;;;;;;;16.19;40.66;92258.00;5030313;28;20083;-85
2022/04/23 06:06:55;;;;;;;5.80;3.90;;;;;;;16.18;40.87;92262.69;5031462;28;20058;-85
2022/04/23 06:09:20;;;;;;;4.30;3.20;;;;;;;16.18;40.84;92267.41;5062409;28;20051;-85
2022/04/23 06:11:46;;;;;;;3.92;3.15;;;;;;;16.18;40.85;92267.41;5050942;28;20498;-85
2022/04/23 06:14:11;;;;;;;3.85;3.08;;;;;;;16.18;40.93;92265.44;5066915;28;20045;-88
2022/04/23 06:16:37;;;;;;;6.32;3.53;;;;;;;16.17;40.80;92266.69;5061393;28;20040;-85
2022/04/23 06:19:03;;;;;;;3.70;3.05;;;;;;;16.18;40.71;92256.50;5030518;28;20037;-85
2022/04/23 06:21:28;;;;;;;4.30;3.50;;;;;;;16.17;41.21;92250.31;5062894;28;20036;-86
2022/04/23 06:23:54;;;;;;;4.88;3.63;;;;;;;16.19;40.98;92249.81;5050973;28;20056;-85
2022/04/23 06:26:19;;;;;;;4.22;3.47;;;;;;;16.19;41.02;92249.81;5049870;28;20057;-85
2022/04/23 06:28:44;;;;;;;5.22;3.63;;;;;;;16.20;41.21;92254.00;5050616;28;20043;-86
2022/04/23 06:31:10;;;;;;;3.78;3.13;;;;;;;16.19;40.87;92247.09;5049774;28;20028;-85
2022/04/23 06:33:35;;;;;;;5.85;3.50;;;;;;;16.18;41.06;92254.53;5050399;28;20047;-85
2022/04/23 06:36:01;;;;;;;5.55;3.40;;;;;;;16.21;41.18;92250.03;5067077;28;20436;-86
2022/04/23 06:38:26;;;;;;;4.03;3.30;;;;;;;16.18;41.11;92246.34;5049632;28;20486;-86
2022/04/23 06:40:52;;;;;;;5.43;3.65;;;;;;;16.19;40.79;92247.09;5067342;28;20075;-85
2022/04/23 06:43:17;;;;;;;4.35;3.08;;;;;;;16.19;40.86;92249.81;5032643;28;20029;-85
2022/04/23 06:45:43;;;;;;;4.28;3.17;;;;;;;16.20;41.06;92243.09;5049548;28;20450;-85
2022/04/23 06:48:08;;;;;;;3.40;2.88;;;;;;;16.19;40.73;92245.09;5032580;28;20490;-85
2022/04/23 06:50:34;;;;;;;4.10;3.00;;;;;;;16.19;40.92;92255.25;5033664;28;20402;-86
2022/04/23 06:53:00;;;;;;;4.32;3.53;;;;;;;16.19;40.93;92247.09;5033553;28;20530;-87
2022/04/23 06:55:26;;;;;;;5.65;3.40;;;;;;;16.19;41.01;92255.25;5049399;28;20111;-85
2022/04/23 06:57:51;;;;;;;4.03;3.10;;;;;;;16.18;40.81;92251.78;5066419;28;20066;-85
2022/04/23 07:00:17;;;;;;;3.63;2.83;;;;;;;16.19;41.09;92249.81;5049924;28;20037;-85
2022/04/23 07:02:42;;;;;;;5.07;2.85;;;;;;;16.19;40.70;92256.00;5066493;28;20040;-85
2022/04/23 07:05:08;;;;;;;3.40;2.67;;;;;;;16.18;41.02;92257.25;5033360;28;20036;-87
2022/04/23 07:07:33;;;;;;;5.22;3.67;;;;;;;16.19;40.85;92258.72;5066344;28;20448;-86
2022/04/23 07:09:59;;;;;;;5.47;3.28;;;;;;;16.18;40.55;92261.97;5066227;28;20048;-85
2022/04/23 07:12:24;;;;;;;4.32;3.10;;;;;;;16.19;40.72;92264.16;5049233;28;20557;-85
2022/04/23 07:14:49;;;;;;;3.47;2.60;;;;;;;16.21;41.00;92267.13;5050573;28;20048;-86
2022/04/23 07:17:15;;;;;;;3.05;2.53;;;;;;;16.20;41.06;92270.34;5038074;28;20041;-87
2022/04/23 07:19:40;;;;;;;3.33;2.67;;;;;;;16.21;40.97;92278.03;5029780;28;20056;-85
2022/04/23 07:22:07;;;;;;;4.13;3.13;;;;;;;16.19;40.87;92272.34;5062898;28;20611;-85
2022/04/23 07:24:33;;;;;;;4.30;3.05;;;;;;;16.18;40.53;92265.44;5050354;28;20040;-86
2022/04/23 07:26:59;;;;;;;4.45;3.10;;;;;;;16.19;40.70;92266.16;5049407;28;20040;-85
2022/04/23 07:29:24;;;;;;;3.58;2.75;;;;;;;16.19;40.84;92258.00;5034559;28;20033;-85
2022/04/23 07:31:49;;;;;;;4.20;2.78;;;;;;;16.19;40.72;92244.34;5034603;28;20044;-85
2022/04/23 07:39:44;;;;;;;8.43;4.53;;;;;;;16.18;41.01;92246.34;5061543;28;20098;-85
2022/04/23 07:42:09;;;;;;;10.75;5.78;;;;;;;16.18;40.91;92245.59;5031692;28;20553;-85
2022/04/23 07:44:36;;;;;;;10.55;5.95;;;;;;;16.19;41.01;92247.81;5030502;28;20049;-85
2022/04/23 07:47:01;;;;;;;7.70;5.93;;;;;;;16.18;40.88;92251.06;5030401;28;20033;-85
2022/04/23 07:49:27;;;;;;;11.40;6.60;;;;;;;16.19;40.75;92252.53;5030149;28;20060;-85
2022/04/23 07:51:52;;;;;;;15.15;8.75;;;;;;;16.19;40.73;92247.81;5049706;28;20037;-85
2022/04/23 07:54:18;;;;;;;11.18;7.45;;;;;;;16.18;40.91;92249.06;5049627;28;20040;-85
2022/04/23 07:56:44;;;;;;;11.80;7.80;;;;;;;16.19;40.92;92258.72;5050275;28;20033;-86
2022/04/23 07:59:09;;;;;;;10.57;7.30;;;;;;;16.20;40.84;92254.75;5052125;28;20413;-85
2022/04/23 08:01:35;;;;;;;11.50;7.60;;;;;;;16.20;40.97;92262.19;5056986;28;20048;-86
2022/04/23 08:04:02;;;;;;;9.88;6.78;;;;;;;16.19;40.96;92261.44;5059259;28;20037;-88
2022/04/23 08:06:28;;;;;;;9.88;6.50;;;;;;;16.19;40.75;92261.44;5058112;28;20040;-86
2022/04/23 08:08:53;;;;;;;11.50;7.40;;;;;;;16.19;40.94;92263.44;5052855;28;20057;-86
2022/04/23 08:11:22;;;;;;;11.90;8.05;;;;;;;16.18;40.98;92261.97;5070010;28;20033;-86
2022/04/23 08:13:48;;;;;;;14.07;8.35;;;;;;;16.18;40.70;92273.59;5055110;28;20127;-86
2022/04/23 08:16:14;;;;;;;12.68;7.55;;;;;;;16.18;40.93;92273.59;5053884;28;20032;-86
2022/04/23 08:18:39;;;;;;;9.35;6.82;;;;;;;16.20;40.52;92275.81;5054318;28;20493;-86
2022/04/23 08:21:04;;;;;;;9.60;7.07;;;;;;;16.18;40.79;92275.59;5070471;28;20313;-86
2022/04/23 08:23:33;;;;;;;12.88;7.85;;;;;;;16.20;40.56;92286.72;5057075;28;20047;-86
2022/04/23 08:26:02;;;;;;;11.60;7.63;;;;;;;16.18;40.90;92284.50;5055653;28;20040;-86
2022/04/23 08:31:12;;;;;;;11.05;7.30;;;;;;;16.19;41.20;92282.53;5057024;28;20095;-86
2022/04/23 08:36:22;;;;;;;13.88;8.20;;;;;;;16.18;41.07;92283.78;5070016;28;20044;-86
2022/04/23 08:38:48;;;;;;;13.30;8.35;;;;;;;16.17;41.15;92271.41;5069323;28;20040;-87
2022/04/23 08:41:13;;;;;;;19.77;8.73;;;;;;;16.18;41.19;92279.06;5035837;28;20413;-86
2022/04/23 08:43:41;;;;;;;17.92;8.48;;;;;;;16.18;40.99;92270.88;5053283;28;20529;-86
2022/04/23 08:46:07;;;;;;;14.60;8.38;;;;;;;16.19;40.71;92268.91;5058248;28;20482;-88
2022/04/23 08:48:36;;;;;;;19.45;8.43;;;;;;;16.19;40.75;92277.06;5033123;28;20060;-86
2022/04/23 08:51:03;;;;;;;14.50;8.70;;;;;;;16.18;41.06;92278.31;5016296;28;20033;-87
2022/04/23 08:53:31;;;;;;;18.13;8.40;;;;;;;16.19;40.64;92269.63;5042599;28;20036;-87
2022/04/23 08:55:56;;;;;;;13.75;8.32;;;;;;;16.20;40.81;92273.09;5069824;28;20037;-87
2022/04/23 08:58:23;;;;;;;15.60;8.23;;;;;;;16.19;40.93;92263.44;5050871;28;20071;-86
2022/04/23 09:00:48;;;;;;;10.63;7.75;;;;;;;16.18;40.78;92276.34;5053436;28;20028;-86
2022/04/23 09:03:14;;;;;;;17.23;7.93;;;;;;;16.20;40.92;92267.63;5035028;28;20108;-87
2022/04/23 09:05:40;;;;;;;19.98;8.13;;;;;;;16.18;40.73;92270.88;5069804;28;20106;-88
2022/04/23 09:08:07;;;;;;;16.25;8.77;;;;;;;16.19;40.98;92261.44;5053609;28;20079;-88
2022/04/23 09:10:51;;;;;;;16.80;8.50;;;;;;;16.20;41.10;92264.91;5051629;28;20083;-88
2022/04/23 09:13:26;;;;;;;17.65;8.60;;;;;;;16.20;40.92;92264.91;5050078;28;20044;-88
2022/04/23 09:24:17;;;;;;;20.85;8.00;;;;;;;16.19;40.96;92253.25;5055184;28;20514;-88
2022/04/23 09:26:42;;;;;;;14.55;8.40;;;;;;;16.19;40.85;92258.72;5055356;28;20044;-91
2022/04/23 09:29:18;;;;;;;14.10;7.55;;;;;;;16.20;41.18;92260.19;5051770;28;20040;-91
2022/04/23 09:31:43;;;;;;;15.60;7.95;;;;;;;16.20;41.04;92257.47;5037696;28;20033;-91
2022/04/23 09:34:18;;;;;;;12.02;8.13;;;;;;;16.20;40.99;92265.66;5035301;28;20052;-90
2022/04/23 09:36:50;;;;;;;13.85;8.02;;;;;;;16.20;40.86;92268.38;5035680;28;20032;-91
2022/04/23 09:39:28;;;;;;;14.50;7.57;;;;;;;16.21;40.85;92256.22;5052829;28;20036;-91
2022/04/23 09:41:54;;;;;;;12.75;8.00;;;;;;;16.20;40.96;92262.91;5053993;28;20041;-90
2022/04/23 09:44:19;;;;;;;14.55;8.63;;;;;;;16.21;40.99;92261.66;5035637;28;20483;-90
2022/04/23 09:46:48;;;;;;;13.95;8.15;;;;;;;16.21;40.71;92264.38;5036037;28;20051;-90
2022/04/23 09:49:19;;;;;;;16.42;8.50;;;;;;;16.21;40.82;92261.66;5068956;28;20098;-88
2022/04/23 09:51:58;;;;;;;14.07;7.65;;;;;;;16.23;40.83;92266.59;5069352;28;20068;-88
2022/04/23 09:54:23;;;;;;;18.95;7.63;;;;;;;16.21;40.83;92269.84;5051604;28;20041;-88
2022/04/23 09:56:49;;;;;;;20.27;7.82;;;;;;;16.21;40.98;92258.94;5051896;28;20044;-88
2022/04/23 09:59:14;;;;;;;9.95;7.28;;;;;;;16.21;41.00;92258.94;5051262;28;20037;-88
2022/04/23 10:01:40;;;;;;;16.40;8.32;;;;;;;16.22;40.83;92262.41;5051934;28;20098;-89
2022/04/23 10:04:05;;;;;;;15.68;8.25;;;;;;;16.22;40.86;92259.66;5068275;28;20386;-89
2022/04/23 10:06:35;;;;;;;18.20;7.22;;;;;;;16.23;40.82;92258.41;5052085;28;20045;-89
2022/04/23 10:09:00;;;;;;;12.90;6.70;;;;;;;16.22;40.97;92260.41;5052787;28;20033;-89
2022/04/23 10:11:28;;;;;;;12.10;7.70;;;;;;;16.23;41.04;92264.59;5051254;28;20040;-89
2022/04/23 10:14:04;;;;;;;11.95;7.15;;;;;;;16.24;41.04;92262.59;5068409;28;20566;-89
2022/04/23 10:16:30;;;;;;;10.20;7.03;;;;;;;16.24;40.70;92254.44;5069480;28;20047;-88
2022/04/23 10:18:56;;;;;;;9.45;6.72;;;;;;;16.23;40.76;92253.69;5034411;28;20040;-88
2022/04/23 10:21:26;;;;;;;10.65;6.63;;;;;;;16.25;40.87;92251.16;5030791;28;20052;-89
2022/04/23 10:24:01;;;;;;;11.73;7.25;;;;;;;16.26;40.77;92258.06;5031063;28;20505;-89
2022/04/23 10:26:45;;;;;;;17.27;7.60;;;;;;;16.26;41.27;92258.06;5060837;28;20114;-89
2022/04/23 10:29:13;;;;;;;10.07;6.63;;;;;;;16.24;40.51;92257.88;5047047;28;20041;-88
2022/04/23 10:31:39;;;;;;;8.82;6.57;;;;;;;16.26;41.12;92252.63;5045058;28;20037;-88
2022/04/23 10:34:04;;;;;;;10.05;6.13;;;;;;;16.26;40.79;92249.88;5034286;28;20035;-90
2022/04/23 10:36:30;;;;;;;10.00;6.57;;;;;;;16.26;40.99;92255.34;5054477;28;20041;-90
2022/04/23 10:39:21;;;;;;;10.73;6.97;;;;;;;16.27;40.59;92253.34;5024059;28;20037;-88
2022/04/23 10:41:49;;;;;;;12.45;6.72;;;;;;;16.27;40.80;92250.63;5046651;28;20063;-88
2022/04/23 10:44:16;;;;;;;11.40;6.50;;;;;;;16.27;40.81;92256.06;5037185;28;20095;-88
2022/04/23 10:46:44;;;;;;;9.70;6.50;;;;;;;16.27;40.92;92256.06;5042664;28;20036;-88
2022/04/23 10:49:19;;;;;;;9.88;6.70;;;;;;;16.27;40.90;92250.63;5050577;28;20036;-88
2022/04/23 10:51:49;;;;;;;8.38;5.80;;;;;;;16.28;40.76;92258.28;5067741;28;20048;-89
2022/04/23 10:54:16;;;;;;;9.95;6.10;;;;;;;16.29;40.67;92257.03;5067217;28;20044;-89
2022/04/23 10:56:43;;;;;;;8.95;6.03;;;;;;;16.30;40.74;92257.75;5034892;28;20032;-88
2022/04/23 10:59:43;;;;;;;9.45;6.25;;;;;;;16.30;41.01;92255.03;5049771;28;20043;-89
2022/04/23 11:02:20;;;;;;;10.57;7.10;;;;;;;16.30;40.89;92253.03;5049724;28;20132;-88
2022/04/23 11:13:27;;;;;;;11.83;5.70;;;;;;;16.32;40.45;92249.78;5066758;28;20666;-88
2022/04/23 11:16:08;;;;;;;8.40;5.30;;;;;;;16.32;40.81;92250.53;5034437;28;20277;-88
2022/04/23 11:18:34;;;;;;;18.40;6.47;;;;;;;16.31;40.97;92254.50;5033582;28;20051;-88
2022/04/23 11:21:21;;;;;;;21.52;7.50;;;;;;;16.33;40.85;92251.25;5033447;28;20033;-88
2022/04/23 11:23:47;;;;;;;12.13;6.18;;;;;;;16.32;40.72;92250.53;5051007;28;20239;-87
2022/04/23 11:26:14;;;;;;;18.75;7.03;;;;;;;16.33;40.50;92256.72;5049579;28;20041;-87
2022/04/23 11:28:40;;;;;;;13.60;6.28;;;;;;;16.34;40.76;92244.56;5066982;28;20059;-88
2022/04/23 11:31:11;;;;;;;23.55;7.45;;;;;;;16.35;40.90;92243.28;5029442;28;20029;-88
2022/04/23 11:33:37;;;;;;;18.25;8.20;;;;;;;16.35;41.00;92254.19;5030568;28;20029;-88
2022/04/23 11:36:04;;;;;;;13.60;5.97;;;;;;;16.35;40.58;92254.19;5053115;28;20154;-88
2022/04/23 11:38:29;;;;;;;25.90;8.85;;;;;;;16.39;40.67;92254.63;5070886;28;20098;-88
2022/04/23 11:40:55;;;;;;;17.98;8.85;;;;;;;16.38;40.83;92247.69;5054323;28;20033;-89
2022/04/23 11:43:31;;;;;;;24.20;10.43;;;;;;;16.34;40.62;92250.75;5036799;28;20033;-88
2022/04/23 11:46:07;;;;;;;38.58;11.75;;;;;;;16.36;40.85;92237.31;5037211;28;20037;-88
2022/04/23 11:48:42;;;;;;;31.42;10.52;;;;;;;16.36;40.66;92233.84;5053840;28;20028;-88
2022/04/23 11:51:10;;;;;;;30.35;10.45;;;;;;;16.35;40.84;92238.56;5053640;28;20056;-88
2022/04/23 11:53:57;;;;;;;28.83;11.63;;;;;;;16.37;40.75;92243.50;5037984;28;20072;-88
2022/04/23 11:56:24;;;;;;;38.45;13.43;;;;;;;16.36;40.90;92237.31;5070507;28;20028;-87